createdAt,value
2022-12-16T00:01:27.616Z,76842.16
2022-12-16T00:03:59.937Z,76835.94
2022-12-16T00:06:31.910Z,76840.09
2022-12-16T00:09:01.821Z,76831.75
2022-12-16T00:11:32.003Z,76831.75
2022-12-16T00:13:59.757Z,76840.09
2022-12-16T00:16:28.622Z,76856.72
2022-12-16T00:18:56.824Z,76865.03
2022-12-16T00:21:29.636Z,76871.28
2022-12-16T00:23:58.467Z,76865.03
2022-12-16T00:26:29.801Z,76840.09
2022-12-16T00:28:58.104Z,76825.53
2022-12-16T00:31:27.618Z,76815.13
2022-12-16T00:33:57.415Z,76827.59
2022-12-16T00:36:25.433Z,76831.75
2022-12-16T00:38:53.875Z,76831.75
2022-12-16T00:41:22.065Z,76840.09
2022-12-16T00:43:51.114Z,76819.28
2022-12-16T00:46:20.020Z,76829.69
2022-12-16T00:48:47.882Z,76827.59
2022-12-16T00:51:15.896Z,76825.53
2022-12-16T00:53:43.803Z,76823.44
2022-12-16T00:56:14.495Z,76817.22
2022-12-16T00:58:42.753Z,76810.97
2022-12-16T01:01:12.584Z,76810.97
2022-12-16T01:03:41.027Z,76819.28
2022-12-16T01:06:11.139Z,76823.44
2022-12-16T01:08:39.119Z,76815.13
2022-12-16T01:11:07.667Z,76815.13
2022-12-16T01:13:36.015Z,76825.53
2022-12-16T01:16:04.585Z,76819.28
2022-12-16T01:18:33.723Z,76806.81
2022-12-16T01:21:04.525Z,76794.34
2022-12-16T01:23:33.395Z,76796.41
2022-12-16T01:26:02.950Z,76802.66
2022-12-16T01:28:31.316Z,76804.72
2022-12-16T01:31:01.823Z,76777.69
2022-12-16T01:33:31.284Z,76775.63
2022-12-16T01:36:02.939Z,76759.00
2022-12-16T01:38:31.602Z,76754.84
2022-12-16T01:40:59.964Z,76756.91
2022-12-16T01:43:31.206Z,76761.06
2022-12-16T01:46:04.134Z,76767.31
2022-12-16T01:48:35.272Z,76773.53
2022-12-16T01:51:08.904Z,76769.38
2022-12-16T01:53:40.604Z,76759.00
2022-12-16T01:56:09.201Z,76752.75
2022-12-16T01:58:41.655Z,76754.84
2022-12-16T02:01:10.371Z,76756.91
2022-12-16T02:03:39.761Z,76756.91
2022-12-16T02:06:09.403Z,76754.84
2022-12-16T02:08:37.618Z,76752.75
2022-12-16T02:11:25.552Z,76744.44
2022-12-16T02:14:12.307Z,76746.50
2022-12-16T02:16:48.265Z,76744.44
2022-12-16T02:19:41.009Z,76736.13
2022-12-16T02:22:24.819Z,76746.50
2022-12-16T02:25:25.811Z,76740.28
2022-12-16T02:28:02.131Z,76731.97
2022-12-16T02:30:56.522Z,76723.66
2022-12-16T02:33:41.692Z,76719.47
2022-12-16T02:36:17.871Z,76719.47
2022-12-16T02:38:57.123Z,76711.16
2022-12-16T02:41:32.236Z,76711.16
2022-12-16T02:44:04.130Z,76702.84
2022-12-16T02:46:39.373Z,76690.38
2022-12-16T02:49:08.713Z,76694.53
2022-12-16T02:51:39.466Z,76698.69
2022-12-16T02:54:09.086Z,76694.53
2022-12-16T02:56:51.559Z,76694.53
2022-12-16T02:59:25.443Z,76694.53
2022-12-16T03:01:59.952Z,76682.06
2022-12-16T03:04:37.383Z,76686.22
2022-12-16T03:07:08.067Z,76686.22
2022-12-16T03:09:40.082Z,76682.06
2022-12-16T03:12:12.713Z,76694.53
2022-12-16T03:14:44.371Z,76684.13
2022-12-16T03:17:15.147Z,76677.91
2022-12-16T03:19:48.317Z,76686.22
2022-12-16T03:22:21.263Z,76684.13
2022-12-16T03:24:49.711Z,76669.59
2022-12-16T03:27:21.671Z,76675.81
2022-12-16T03:29:59.228Z,76646.72
2022-12-16T03:32:35.559Z,76648.78
2022-12-16T03:35:12.041Z,76652.94
2022-12-16T03:37:42.360Z,76646.72
2022-12-16T03:40:12.819Z,76642.56
2022-12-16T03:42:42.135Z,76644.63
2022-12-16T03:45:16.809Z,76644.63
2022-12-16T03:47:50.336Z,76632.16
2022-12-16T03:50:20.826Z,76632.16
2022-12-16T03:52:48.652Z,76628.00
2022-12-16T03:55:16.749Z,76611.38
2022-12-16T03:57:44.721Z,76623.84
2022-12-16T04:00:14.227Z,76619.69
2022-12-16T04:02:42.704Z,76615.53
2022-12-16T04:05:12.554Z,76571.84
2022-12-16T04:07:40.389Z,76569.78
2022-12-16T04:10:09.530Z,76578.09
2022-12-16T04:12:54.908Z,76578.09
2022-12-16T04:15:40.936Z,76582.25
2022-12-16T04:18:33.222Z,76578.09
2022-12-16T04:21:21.249Z,76594.72
2022-12-16T04:24:10.397Z,76594.72
2022-12-16T04:26:52.328Z,76573.94
2022-12-16T04:29:20.444Z,76590.56
2022-12-16T04:31:48.735Z,76588.50
2022-12-16T04:34:29.322Z,76594.72
2022-12-16T04:37:18.102Z,76584.34
2022-12-16T04:40:03.798Z,76596.81
2022-12-16T04:42:49.956Z,76598.88
2022-12-16T04:45:35.793Z,76586.41
2022-12-16T04:48:22.160Z,76586.41
2022-12-16T04:51:07.981Z,76584.34
2022-12-16T04:53:54.979Z,76573.94
2022-12-16T04:56:51.773Z,76571.84
2022-12-16T04:59:37.350Z,76569.78
2022-12-16T05:02:23.051Z,76559.38
2022-12-16T05:05:08.910Z,76561.47
2022-12-16T05:07:54.039Z,76553.16
2022-12-16T05:10:41.175Z,76549.00
2022-12-16T05:13:26.432Z,76530.28
2022-12-16T05:16:12.441Z,76515.72
2022-12-16T05:18:57.715Z,76503.25
2022-12-16T05:21:43.579Z,76494.94
2022-12-16T05:24:28.782Z,76494.94
2022-12-16T05:27:16.250Z,76499.09
2022-12-16T05:30:01.647Z,76482.44
2022-12-16T05:32:47.517Z,76482.44
2022-12-16T05:35:41.575Z,76488.69
2022-12-16T05:38:27.464Z,76486.63
2022-12-16T05:41:12.924Z,76490.78
2022-12-16T05:44:00.181Z,76505.31
2022-12-16T05:46:45.573Z,76497.00
2022-12-16T05:49:31.613Z,76507.41
2022-12-16T05:52:16.919Z,76507.41
2022-12-16T05:55:02.931Z,76492.84
2022-12-16T05:57:48.277Z,76482.44
2022-12-16T06:00:35.853Z,76469.97
2022-12-16T06:03:21.382Z,76474.13
2022-12-16T06:06:07.219Z,76457.50
2022-12-16T06:08:52.515Z,76461.66
2022-12-16T06:11:37.660Z,76463.75
2022-12-16T06:14:23.239Z,76457.50
2022-12-16T06:17:10.171Z,76457.50
2022-12-16T06:20:03.837Z,76455.44
2022-12-16T06:22:49.896Z,76453.34
2022-12-16T06:25:35.087Z,76457.50
2022-12-16T06:28:20.975Z,76455.44
2022-12-16T06:31:06.796Z,76449.19
2022-12-16T06:33:55.138Z,76442.94
2022-12-16T06:36:40.909Z,76453.34
2022-12-16T06:39:26.561Z,76455.44
2022-12-16T06:42:11.817Z,76424.25
2022-12-16T06:44:57.722Z,76430.47
2022-12-16T06:47:42.904Z,76430.47
2022-12-16T06:50:30.480Z,76424.25
2022-12-16T06:53:15.813Z,76415.91
2022-12-16T06:56:01.652Z,76411.75
2022-12-16T06:58:47.050Z,76390.97
2022-12-16T07:01:32.825Z,76399.28
2022-12-16T07:04:18.550Z,76399.28
2022-12-16T07:07:05.971Z,76407.59
2022-12-16T07:09:51.230Z,76407.59
2022-12-16T07:12:37.343Z,76386.81
2022-12-16T07:15:23.624Z,76378.50
2022-12-16T07:18:09.568Z,76378.50
2022-12-16T07:20:55.109Z,76370.19
2022-12-16T07:23:42.389Z,76361.88
2022-12-16T07:26:27.701Z,76374.34
2022-12-16T07:29:13.943Z,76359.78
2022-12-16T07:31:59.244Z,76359.78
2022-12-16T07:34:50.591Z,76357.72
2022-12-16T07:37:36.289Z,76345.22
2022-12-16T07:40:24.417Z,76349.41
2022-12-16T07:43:09.764Z,76349.41
2022-12-16T07:45:55.585Z,76349.41
2022-12-16T07:48:40.843Z,76351.47
2022-12-16T07:51:26.567Z,76339.00
2022-12-16T07:54:11.769Z,76328.59
2022-12-16T07:56:58.903Z,76334.84
2022-12-16T07:59:44.259Z,76330.69
2022-12-16T08:02:30.258Z,76324.44
2022-12-16T08:05:16.030Z,76311.97
2022-12-16T08:08:01.880Z,76311.97
2022-12-16T08:10:47.100Z,76287.03
2022-12-16T08:13:34.594Z,76295.34
2022-12-16T08:16:20.407Z,76291.19
2022-12-16T08:19:10.809Z,76287.03
2022-12-16T08:21:56.855Z,76291.19
2022-12-16T08:24:43.819Z,76301.56
2022-12-16T08:27:32.062Z,76307.81
2022-12-16T08:30:19.186Z,76307.81
2022-12-16T08:33:15.028Z,76316.13
2022-12-16T08:36:04.329Z,76307.81
2022-12-16T08:38:49.556Z,76307.81
2022-12-16T08:41:35.228Z,76311.97
2022-12-16T08:44:20.722Z,76320.28
2022-12-16T08:47:08.106Z,76320.28
2022-12-16T08:49:57.711Z,76322.38
2022-12-16T08:52:47.543Z,76324.44
2022-12-16T08:55:32.957Z,76324.44
2022-12-16T08:58:19.071Z,76320.28
2022-12-16T09:01:07.423Z,76318.22
2022-12-16T09:03:57.801Z,76311.97
2022-12-16T09:06:43.329Z,76307.81
2022-12-16T09:09:29.153Z,76309.88
2022-12-16T09:12:14.308Z,76297.41
2022-12-16T09:15:00.397Z,76299.50
2022-12-16T09:17:45.524Z,76299.50
2022-12-16T09:20:32.770Z,76293.25
2022-12-16T09:23:20.627Z,76287.03
2022-12-16T09:26:06.655Z,76295.34
2022-12-16T09:28:51.905Z,76289.09
2022-12-16T09:31:38.798Z,76291.19
2022-12-16T09:34:24.146Z,76278.69
2022-12-16T09:37:11.232Z,76278.69
2022-12-16T09:39:56.505Z,76280.78
2022-12-16T09:42:48.848Z,76295.34
2022-12-16T09:45:45.439Z,76311.97
2022-12-16T09:48:38.556Z,76318.22
2022-12-16T09:51:24.427Z,76316.13
2022-12-16T09:54:14.553Z,76307.81
2022-12-16T09:57:01.843Z,76305.72
2022-12-16T09:59:52.283Z,76299.50
2022-12-16T10:02:39.816Z,76280.78
2022-12-16T10:05:30.258Z,76278.69
2022-12-16T10:08:24.791Z,76276.63
2022-12-16T10:11:17.415Z,76272.47
2022-12-16T10:14:09.864Z,76287.03
2022-12-16T10:17:06.613Z,76291.19
2022-12-16T10:20:08.973Z,76291.19
2022-12-16T10:23:02.924Z,76322.38
2022-12-16T10:25:54.796Z,76334.84
2022-12-16T10:28:58.961Z,76334.84
2022-12-16T10:31:44.304Z,76324.44
2022-12-16T10:34:34.055Z,76320.28
2022-12-16T10:37:21.306Z,76318.22
2022-12-16T10:40:14.626Z,76332.75
2022-12-16T10:43:05.247Z,76330.69
2022-12-16T10:45:56.775Z,76332.75
2022-12-16T10:48:55.114Z,76345.22
2022-12-16T10:51:45.784Z,76345.22
2022-12-16T10:54:50.372Z,76341.06
2022-12-16T10:57:49.001Z,76324.44
2022-12-16T11:00:36.811Z,76332.75
2022-12-16T11:03:41.293Z,76324.44
2022-12-16T11:06:27.468Z,76336.91
2022-12-16T11:09:13.137Z,76353.56
2022-12-16T11:11:58.431Z,76339.00
2022-12-16T11:15:05.722Z,76339.00
2022-12-16T11:17:51.775Z,76353.56
2022-12-16T11:20:41.260Z,76361.88
2022-12-16T11:23:31.905Z,76388.91
2022-12-16T11:26:34.516Z,76390.97
2022-12-16T11:29:24.885Z,76388.91
2022-12-16T11:32:16.188Z,76386.81
2022-12-16T11:35:07.718Z,76388.91
2022-12-16T11:37:56.752Z,76370.19
2022-12-16T11:40:43.051Z,76366.03
2022-12-16T11:43:32.435Z,76361.88
2022-12-16T11:46:21.793Z,76359.78
2022-12-16T11:49:11.061Z,76370.19
2022-12-16T11:52:28.366Z,76366.03
2022-12-16T11:55:35.690Z,76370.19
2022-12-16T11:58:37.255Z,76368.09
2022-12-16T12:01:31.908Z,76361.88
2022-12-16T12:04:17.676Z,76368.09
2022-12-16T12:07:18.819Z,76370.19
2022-12-16T12:10:11.715Z,76370.19
2022-12-16T12:13:04.519Z,76353.56
2022-12-16T12:15:57.044Z,76345.22
2022-12-16T12:18:56.550Z,76349.41
2022-12-16T12:21:44.090Z,76357.72
2022-12-16T12:24:42.699Z,76361.88
2022-12-16T12:27:39.547Z,76380.56
2022-12-16T12:30:31.514Z,76366.03
2022-12-16T12:33:35.673Z,76357.72
2022-12-16T12:36:36.233Z,76355.63
2022-12-16T12:39:33.660Z,76355.63
2022-12-16T12:42:30.860Z,76353.56
2022-12-16T12:45:34.611Z,76355.63
2022-12-16T12:48:31.764Z,76349.41
2022-12-16T12:51:24.505Z,76372.25
2022-12-16T12:54:18.679Z,76363.94
2022-12-16T12:57:07.786Z,76361.88
2022-12-16T13:00:06.063Z,76361.88
2022-12-16T13:03:04.527Z,76374.34
2022-12-16T13:05:53.399Z,76390.97
2022-12-16T13:09:15.804Z,76395.13
2022-12-16T13:12:35.457Z,76424.25
2022-12-16T13:15:25.917Z,76424.25
2022-12-16T13:18:37.569Z,76418.00
2022-12-16T13:21:43.629Z,76422.16
2022-12-16T13:24:43.604Z,76426.31
2022-12-16T13:27:31.412Z,76426.31
2022-12-16T13:30:21.505Z,76438.78
2022-12-16T13:33:13.348Z,76445.03
2022-12-16T13:36:13.243Z,76451.28
2022-12-16T13:39:05.193Z,76457.50
2022-12-16T13:42:17.992Z,76457.50
2022-12-16T13:45:34.516Z,76469.97
2022-12-16T13:48:43.497Z,76465.81
2022-12-16T13:52:11.120Z,76465.81
2022-12-16T13:55:03.394Z,76469.97
2022-12-16T13:57:50.834Z,76457.50
2022-12-16T14:00:39.789Z,76465.81
2022-12-16T14:03:32.829Z,76478.28
2022-12-16T14:06:20.802Z,76478.28
2022-12-16T14:09:07.633Z,76478.28
2022-12-16T14:12:06.503Z,76474.13
2022-12-16T14:14:59.459Z,76478.28
2022-12-16T14:17:52.671Z,76492.84
2022-12-16T14:20:45.046Z,76499.09
2022-12-16T14:23:56.519Z,76503.25
2022-12-16T14:26:44.195Z,76519.88
2022-12-16T14:29:40.074Z,76524.03
2022-12-16T14:32:46.362Z,76524.03
2022-12-16T14:35:33.796Z,76544.84
2022-12-16T14:38:39.316Z,76549.00
2022-12-16T14:41:29.336Z,76565.63
2022-12-16T14:44:14.798Z,76549.00
2022-12-16T14:47:02.023Z,76551.06
2022-12-16T14:49:48.807Z,76588.50
2022-12-16T14:52:36.998Z,76598.88
2022-12-16T14:55:35.212Z,76603.03
2022-12-16T14:58:23.383Z,76598.88
2022-12-16T15:01:15.560Z,76598.88
2022-12-16T15:04:05.367Z,76603.03
2022-12-16T15:06:53.411Z,76613.44
2022-12-16T15:09:45.193Z,76615.53
2022-12-16T15:12:33.339Z,76617.59
2022-12-16T15:15:22.541Z,76603.03
2022-12-16T15:18:09.770Z,76628.00
2022-12-16T15:21:07.352Z,76619.69
2022-12-16T15:23:53.665Z,76640.47
2022-12-16T15:26:41.161Z,76636.31
2022-12-16T15:29:50.378Z,76636.31
2022-12-16T15:32:50.977Z,76640.47
2022-12-16T15:35:45.021Z,76646.72
2022-12-16T15:38:40.337Z,76669.59
2022-12-16T15:41:36.400Z,76684.13
2022-12-16T15:44:21.973Z,76677.91
2022-12-16T15:47:08.044Z,76700.78
2022-12-16T15:50:03.473Z,76702.84
2022-12-16T15:52:54.313Z,76715.31
2022-12-16T15:55:45.143Z,76715.31
2022-12-16T15:58:32.451Z,76715.31
2022-12-16T16:01:19.264Z,76721.56
2022-12-16T16:04:09.482Z,76725.72
2022-12-16T16:06:55.756Z,76727.81
2022-12-16T16:09:43.665Z,76727.81
2022-12-16T16:12:32.324Z,76744.44
2022-12-16T16:15:17.744Z,76752.75
2022-12-16T16:18:17.336Z,76763.16
2022-12-16T16:21:03.207Z,76752.75
2022-12-16T16:23:49.742Z,76761.06
2022-12-16T16:26:38.572Z,76761.06
2022-12-16T16:29:27.753Z,76773.53
2022-12-16T16:32:13.453Z,76790.19
2022-12-16T16:34:59.271Z,76790.19
2022-12-16T16:37:44.642Z,76783.94
2022-12-16T16:40:47.685Z,76781.88
2022-12-16T16:43:33.394Z,76806.81
2022-12-16T16:46:23.994Z,76815.13
2022-12-16T16:49:11.018Z,76821.38
2022-12-16T16:51:56.624Z,76815.13
2022-12-16T16:54:41.921Z,76823.44
2022-12-16T16:57:28.728Z,76813.06
2022-12-16T17:00:14.169Z,76821.38
2022-12-16T17:03:01.779Z,76823.44
2022-12-16T17:05:47.474Z,76833.84
2022-12-16T17:08:33.008Z,76835.94
2022-12-16T17:11:18.429Z,76840.09
2022-12-16T17:14:04.129Z,76844.25
2022-12-16T17:16:49.572Z,76852.56
2022-12-16T17:19:37.025Z,76844.25
2022-12-16T17:22:33.782Z,76860.88
2022-12-16T17:25:19.552Z,76869.19
2022-12-16T17:28:05.342Z,76873.34
2022-12-16T17:30:51.384Z,76873.34
2022-12-16T17:33:37.254Z,76860.88
2022-12-16T17:36:31.731Z,76858.78
2022-12-16T17:39:17.603Z,76877.50
2022-12-16T17:42:03.822Z,76877.50
2022-12-16T17:44:49.771Z,76890.00
2022-12-16T17:47:35.275Z,76898.31
2022-12-16T17:50:21.315Z,76910.78
2022-12-16T17:53:12.476Z,76902.47
2022-12-16T17:55:57.908Z,76910.78
2022-12-16T17:58:50.777Z,76902.47
2022-12-16T18:01:36.794Z,76906.63
2022-12-16T18:04:23.126Z,76900.38
2022-12-16T18:07:08.536Z,76931.56
2022-12-16T18:10:10.428Z,76919.09
2022-12-16T18:12:56.542Z,76927.41
2022-12-16T18:15:42.108Z,76931.56
2022-12-16T18:18:27.788Z,76931.56
2022-12-16T18:21:13.277Z,76919.09
2022-12-16T18:23:58.486Z,76935.72
2022-12-16T18:26:45.655Z,76952.38
2022-12-16T18:29:30.813Z,76952.38
2022-12-16T18:32:15.943Z,76954.44
2022-12-16T18:35:01.431Z,76960.69
2022-12-16T18:37:47.221Z,76964.84
2022-12-16T18:40:32.529Z,76956.53
2022-12-16T18:43:19.641Z,76964.84
2022-12-16T18:46:10.424Z,76977.31
2022-12-16T18:48:56.059Z,77006.44
2022-12-16T18:51:41.659Z,77002.28
2022-12-16T18:54:27.476Z,77004.34
2022-12-16T18:57:12.785Z,77023.06
2022-12-16T18:59:59.955Z,77021.00
2022-12-16T19:02:45.419Z,77018.91
2022-12-16T19:05:31.773Z,77018.91
2022-12-16T19:08:17.006Z,77023.06
2022-12-16T19:11:02.895Z,77018.91
2022-12-16T19:13:48.238Z,77025.16
2022-12-16T19:16:35.439Z,77031.38
2022-12-16T19:19:21.115Z,77027.22
2022-12-16T19:22:06.470Z,77023.06
2022-12-16T19:24:52.089Z,77037.63
2022-12-16T19:27:37.726Z,77037.63
2022-12-16T19:30:24.032Z,77045.94
2022-12-16T19:33:11.369Z,77041.78
2022-12-16T19:35:56.910Z,77048.03
2022-12-16T19:38:42.861Z,77039.69
2022-12-16T19:41:44.264Z,77056.34
2022-12-16T19:44:30.059Z,77060.50
2022-12-16T19:47:15.743Z,77072.97
2022-12-16T19:50:02.968Z,77075.06
2022-12-16T19:52:48.236Z,77072.97
2022-12-16T19:55:34.304Z,77079.22
2022-12-16T19:58:19.604Z,77060.50
2022-12-16T20:01:05.398Z,77068.81
2022-12-16T20:03:52.092Z,77064.66
2022-12-16T20:06:39.367Z,77060.50
2022-12-16T20:09:39.358Z,77072.97
2022-12-16T20:12:25.035Z,77077.13
2022-12-16T20:15:06.808Z,77079.22
2022-12-16T20:17:56.067Z,77081.28
2022-12-16T20:20:41.997Z,77089.59
2022-12-16T20:23:29.042Z,77097.94
2022-12-16T20:26:15.854Z,77097.94
2022-12-16T20:29:01.649Z,77118.72
2022-12-16T20:31:48.038Z,77110.41
2022-12-16T20:34:33.432Z,77104.16
2022-12-16T20:37:19.409Z,77097.94
2022-12-16T20:40:06.678Z,77089.59
2022-12-16T20:42:53.297Z,77093.78
2022-12-16T20:45:39.295Z,77097.94
2022-12-16T20:48:25.236Z,77118.72
2022-12-16T20:51:14.571Z,77110.41
2022-12-16T20:54:00.371Z,77122.88
2022-12-16T20:56:47.561Z,77127.03
2022-12-16T20:59:33.268Z,77133.28
2022-12-16T21:02:23.456Z,77118.72
2022-12-16T21:05:10.508Z,77110.41
2022-12-16T21:07:56.854Z,77114.56
2022-12-16T21:10:42.306Z,77118.72
2022-12-16T21:13:31.864Z,77131.19
2022-12-16T21:16:18.664Z,77135.34
2022-12-16T21:19:04.431Z,77131.19
2022-12-16T21:21:50.133Z,77131.19
2022-12-16T21:24:35.719Z,77147.84
2022-12-16T21:27:21.651Z,77135.34
2022-12-16T21:30:08.894Z,77135.34
2022-12-16T21:32:55.253Z,77139.53
2022-12-16T21:35:42.452Z,77139.53
2022-12-16T21:38:28.788Z,77143.69
2022-12-16T21:41:14.639Z,77152.00
2022-12-16T21:44:00.167Z,77154.06
2022-12-16T21:46:47.111Z,77164.47
2022-12-16T21:49:32.869Z,77158.22
2022-12-16T21:52:18.790Z,77147.84
2022-12-16T21:55:04.196Z,77152.00
2022-12-16T21:57:49.959Z,77147.84
2022-12-16T22:00:35.735Z,77156.16
2022-12-16T22:03:23.054Z,77158.22
2022-12-16T22:06:08.337Z,77160.31
2022-12-16T22:12:00.860Z,77181.09
2022-12-16T22:14:46.666Z,77172.78
2022-12-16T22:17:32.093Z,77160.31
2022-12-16T22:20:19.277Z,77164.47
2022-12-16T22:23:04.981Z,77164.47
2022-12-16T22:25:50.812Z,77162.41
2022-12-16T22:28:38.732Z,77156.16
2022-12-16T22:31:24.524Z,77162.41
2022-12-16T22:34:10.888Z,77160.31
2022-12-16T22:36:57.827Z,77162.41
2022-12-16T22:39:45.172Z,77156.16
2022-12-16T22:42:31.088Z,77156.16
2022-12-16T22:45:16.444Z,77158.22
2022-12-16T22:48:01.967Z,77149.91
2022-12-16T22:50:47.693Z,77143.69
2022-12-16T22:53:34.780Z,77164.47
2022-12-16T22:56:20.664Z,77168.63
2022-12-16T22:59:07.960Z,77172.78
2022-12-16T23:01:53.305Z,77172.78
2022-12-16T23:04:39.684Z,77176.94
2022-12-16T23:07:26.327Z,77166.56
2022-12-16T23:10:16.004Z,77181.09
2022-12-16T23:13:01.957Z,77172.78
2022-12-16T23:15:47.617Z,77176.94
2022-12-16T23:18:33.308Z,77176.94
2022-12-16T23:21:18.924Z,77193.59
2022-12-16T23:24:04.835Z,77189.44
2022-12-16T23:26:51.678Z,77197.75
2022-12-16T23:29:37.818Z,77197.75
2022-12-16T23:32:23.408Z,77197.75
2022-12-16T23:35:08.990Z,77189.44
2022-12-16T23:37:54.270Z,77197.75
2022-12-16T23:40:41.771Z,77191.50
2022-12-16T23:43:28.922Z,77187.34
2022-12-16T23:46:14.634Z,77193.59
2022-12-16T23:49:00.388Z,77191.50
2022-12-16T23:51:45.839Z,77193.59
2022-12-16T23:54:31.652Z,77195.66
2022-12-16T23:57:17.055Z,77189.44
